sensor_id;sensor_type;location;lat;lon;timestamp;pressure;altitude;pressure_sealevel;temperature;humidity
51099;BME280;37146;48.210;16.234;2022-09-13T00:01:44;98772.53;;;11.68;100.00
51099;BME280;37146;48.210;16.234;2022-09-13T00:04:09;98773.38;;;11.69;100.00
51099;BME280;37146;48.210;16.234;2022-09-13T00:06:34;98761.16;;;11.65;100.00
51099;BME280;37146;48.210;16.234;2022-09-13T00:09:00;98757.13;;;11.57;100.00
51099;BME280;37146;48.210;16.234;2022-09-13T00:11:28;98757.84;;;11.45;100.00
51099;BME280;37146;48.210;16.234;2022-09-13T00:13:54;98754.22;;;11.46;100.00
51099;BME280;37146;48.210;16.234;2022-09-13T00:16:22;98758.13;;;11.40;100.00
51099;BME280;37146;48.210;16.234;2022-09-13T00:18:49;98753.44;;;11.44;100.00
51099;BME280;37146;48.210;16.234;2022-09-13T00:21:17;98755.16;;;11.45;100.00
51099;BME280;37146;48.210;16.234;2022-09-13T00:23:44;98759.56;;;11.46;100.00
51099;BME280;37146;48.210;16.234;2022-09-13T00:26:12;98751.50;;;11.32;100.00
51099;BME280;37146;48.210;16.234;2022-09-13T00:28:38;98751.50;;;11.32;100.00
51099;BME280;37146;48.210;16.234;2022-09-13T00:31:06;98756.84;;;11.32;100.00
51099;BME280;37146;48.210;16.234;2022-09-13T00:33:32;98755.50;;;11.24;100.00
51099;BME280;37146;48.210;16.234;2022-09-13T00:35:58;98752.75;;;11.10;100.00
51099;BME280;37146;48.210;16.234;2022-09-13T00:38:27;98753.09;;;11.04;100.00
51099;BME280;37146;48.210;16.234;2022-09-13T00:40:52;98747.22;;;10.97;100.00
51099;BME280;37146;48.210;16.234;2022-09-13T00:43:19;98738.25;;;10.98;100.00
51099;BME280;37146;48.210;16.234;2022-09-13T00:45:46;98743.69;;;10.96;100.00
51099;BME280;37146;48.210;16.234;2022-09-13T00:48:20;98744.66;;;10.95;100.00
51099;BME280;37146;48.210;16.234;2022-09-13T00:50:51;98747.84;;;10.86;100.00
51099;BME280;37146;48.210;16.234;2022-09-13T00:53:22;98743.81;;;10.79;100.00
51099;BME280;37146;48.210;16.234;2022-09-13T00:55:54;98732.91;;;10.82;100.00
51099;BME280;37146;48.210;16.234;2022-09-13T00:58:29;98740.34;;;10.77;100.00
51099;BME280;37146;48.210;16.234;2022-09-13T01:00:57;98739.41;;;10.78;100.00
51099;BME280;37146;48.210;16.234;2022-09-13T01:03:29;98736.63;;;10.79;100.00
51099;BME280;37146;48.210;16.234;2022-09-13T01:06:06;98737.75;;;10.75;100.00
51099;BME280;37146;48.210;16.234;2022-09-13T01:08:34;98738.72;;;10.74;100.00
51099;BME280;37146;48.210;16.234;2022-09-13T01:11:02;98737.75;;;10.75;100.00
51099;BME280;37146;48.210;16.234;2022-09-13T01:13:32;98728.09;;;10.73;100.00
51099;BME280;37146;48.210;16.234;2022-09-13T01:15:58;98727.06;;;10.59;100.00
51099;BME280;37146;48.210;16.234;2022-09-13T01:18:24;98726.91;;;10.62;100.00
51099;BME280;37146;48.210;16.234;2022-09-13T01:35:15;98710.34;;;10.40;100.00
51099;BME280;37146;48.210;16.234;2022-09-13T01:37:55;98710.56;;;10.35;100.00
51099;BME280;37146;48.210;16.234;2022-09-13T01:40:39;98712.72;;;10.28;100.00
51099;BME280;37146;48.210;16.234;2022-09-13T01:51:22;98690.03;;;10.19;100.00
51099;BME280;37146;48.210;16.234;2022-09-13T01:54:00;98694.50;;;10.19;100.00
51099;BME280;37146;48.210;16.234;2022-09-13T01:56:42;98686.84;;;10.13;100.00
51099;BME280;37146;48.210;16.234;2022-09-13T01:59:18;98683.66;;;10.06;100.00
51099;BME280;37146;48.210;16.234;2022-09-13T02:02:18;98686.31;;;10.06;100.00
51099;BME280;37146;48.210;16.234;2022-09-13T02:04:52;98672.97;;;10.06;100.00
51099;BME280;37146;48.210;16.234;2022-09-13T02:07:34;98683.13;;;9.99;100.00
51099;BME280;37146;48.210;16.234;2022-09-13T02:10:08;98678.72;;;9.98;100.00
51099;BME280;37146;48.210;16.234;2022-09-13T02:12:37;98665.34;;;9.98;100.00
51099;BME280;37146;48.210;16.234;2022-09-13T02:15:19;98667.16;;;9.98;100.00
51099;BME280;37146;48.210;16.234;2022-09-13T02:17:51;98666.22;;;9.99;100.00
51099;BME280;37146;48.210;16.234;2022-09-13T02:20:34;98667.25;;;9.96;100.00
51099;BME280;37146;48.210;16.234;2022-09-13T02:23:14;98656.13;;;9.88;100.00
51099;BME280;37146;48.210;16.234;2022-09-13T02:25:42;98661.47;;;9.88;100.00
51099;BME280;37146;48.210;16.234;2022-09-13T02:28:13;98659.38;;;9.77;100.00
51099;BME280;37146;48.210;16.234;2022-09-13T02:30:45;98658.50;;;9.77;100.00
51099;BME280;37146;48.210;16.234;2022-09-13T02:33:17;98653.69;;;9.67;100.00
51099;BME280;37146;48.210;16.234;2022-09-13T02:35:47;98652.09;;;9.63;100.00
51099;BME280;37146;48.210;16.234;2022-09-13T02:38:19;98651.25;;;9.63;100.00
51099;BME280;37146;48.210;16.234;2022-09-13T02:40:50;98648.50;;;9.64;100.00
51099;BME280;37146;48.210;16.234;2022-09-13T02:43:28;98641.25;;;9.66;100.00
51099;BME280;37146;48.210;16.234;2022-09-13T02:46:04;98650.22;;;9.65;100.00
51099;BME280;37146;48.210;16.234;2022-09-13T02:54:22;98644.44;;;9.57;100.00
51099;BME280;37146;48.210;16.234;2022-09-13T02:57:45;98650.19;;;9.49;100.00
51099;BME280;37146;48.210;16.234;2022-09-13T02:59:41;98645.69;;;9.50;100.00
51099;BME280;37146;48.210;16.234;2022-09-13T03:02:10;98646.88;;;9.44;100.00
51099;BME280;37146;48.210;16.234;2022-09-13T03:04:37;98650.34;;;9.46;100.00
51099;BME280;37146;48.210;16.234;2022-09-13T03:07:03;98646.53;;;9.34;100.00
51099;BME280;37146;48.210;16.234;2022-09-13T03:09:31;98646.81;;;9.28;100.00
51099;BME280;37146;48.210;16.234;2022-09-13T03:18:04;98641.56;;;9.26;100.00
51099;BME280;37146;48.210;16.234;2022-09-13T03:20:42;98634.50;;;9.25;100.00
51099;BME280;37146;48.210;16.234;2022-09-13T03:23:34;98631.25;;;9.20;100.00
51099;BME280;37146;48.210;16.234;2022-09-13T03:26:18;98634.31;;;9.12;100.00
51099;BME280;37146;48.210;16.234;2022-09-13T03:29:13;98630.84;;;9.10;100.00
51099;BME280;37146;48.210;16.234;2022-09-13T03:32:14;98624.72;;;9.08;100.00
51099;BME280;37146;48.210;16.234;2022-09-13T03:35:07;98630.53;;;8.99;100.00
51099;BME280;37146;48.210;16.234;2022-09-13T03:40:42;98626.94;;;9.00;100.00
51099;BME280;37146;48.210;16.234;2022-09-13T03:43:15;98628.09;;;8.94;100.00
51099;BME280;37146;48.210;16.234;2022-09-13T03:45:47;98623.31;;;8.84;100.00
51099;BME280;37146;48.210;16.234;2022-09-13T03:48:13;98627.31;;;8.92;100.00
51099;BME280;37146;48.210;16.234;2022-09-13T03:50:40;98631.72;;;8.93;100.00
51099;BME280;37146;48.210;16.234;2022-09-13T03:53:10;98626.03;;;9.00;100.00
51099;BME280;37146;48.210;16.234;2022-09-13T03:55:40;98639.00;;;8.90;100.00
51099;BME280;37146;48.210;16.234;2022-09-13T03:58:10;98633.59;;;8.91;100.00
51099;BME280;37146;48.210;16.234;2022-09-13T04:00:36;98634.47;;;8.92;100.00
51099;BME280;37146;48.210;16.234;2022-09-13T04:03:02;98636.34;;;8.90;100.00
51099;BME280;37146;48.210;16.234;2022-09-13T04:05:27;98625.03;;;8.85;100.00
51099;BME280;37146;48.210;16.234;2022-09-13T04:07:53;98621.09;;;8.74;100.00
51099;BME280;37146;48.210;16.234;2022-09-13T04:10:18;98625.34;;;8.78;100.00
51099;BME280;37146;48.210;16.234;2022-09-13T04:12:44;98627.00;;;8.81;100.00
51099;BME280;37146;48.210;16.234;2022-09-13T04:15:10;98625.41;;;8.77;100.00
51099;BME280;37146;48.210;16.234;2022-09-13T04:17:35;98621.66;;;8.81;100.00
51099;BME280;37146;48.210;16.234;2022-09-13T04:20:00;98628.50;;;8.87;100.00
51099;BME280;37146;48.210;16.234;2022-09-13T04:22:26;98632.78;;;8.89;100.00
51099;BME280;37146;48.210;16.234;2022-09-13T04:24:51;98634.75;;;8.86;100.00
51099;BME280;37146;48.210;16.234;2022-09-13T04:27:17;98635.09;;;8.79;100.00
51099;BME280;37146;48.210;16.234;2022-09-13T04:29:42;98635.78;;;8.83;100.00
51099;BME280;37146;48.210;16.234;2022-09-13T04:32:07;98639.38;;;8.82;100.00
51099;BME280;37146;48.210;16.234;2022-09-13T04:34:34;98638.13;;;8.89;100.00
51099;BME280;37146;48.210;16.234;2022-09-13T04:36:59;98641.72;;;8.88;100.00
51099;BME280;37146;48.210;16.234;2022-09-13T04:39:25;98634.75;;;8.86;100.00
51099;BME280;37146;48.210;16.234;2022-09-13T04:41:51;98622.38;;;8.85;100.00
51099;BME280;37146;48.210;16.234;2022-09-13T04:44:18;98623.25;;;8.85;100.00
51099;BME280;37146;48.210;16.234;2022-09-13T04:46:47;98631.31;;;8.84;100.00
51099;BME280;37146;48.210;16.234;2022-09-13T04:49:14;98631.31;;;8.84;100.00
51099;BME280;37146;48.210;16.234;2022-09-13T04:51:40;98630.91;;;8.91;100.00
51099;BME280;37146;48.210;16.234;2022-09-13T04:54:05;98630.06;;;8.91;100.00
51099;BME280;37146;48.210;16.234;2022-09-13T04:56:31;98633.53;;;8.93;100.00
51099;BME280;37146;48.210;16.234;2022-09-13T04:58:56;98635.31;;;8.92;100.00
51099;BME280;37146;48.210;16.234;2022-09-13T05:01:22;98638.06;;;8.91;100.00
51099;BME280;37146;48.210;16.234;2022-09-13T05:03:50;98642.22;;;8.96;100.00
51099;BME280;37146;48.210;16.234;2022-09-13T05:06:18;98636.19;;;8.93;100.00
51099;BME280;37146;48.210;16.234;2022-09-13T05:08:44;98648.41;;;8.97;100.00
51099;BME280;37146;48.210;16.234;2022-09-13T05:11:14;98639.16;;;8.87;100.00
51099;BME280;37146;48.210;16.234;2022-09-13T05:13:39;98637.75;;;8.97;100.00
51099;BME280;37146;48.210;16.234;2022-09-13T05:16:06;98642.84;;;9.02;100.00
51099;BME280;37146;48.210;16.234;2022-09-13T05:18:34;98635.53;;;9.05;100.00
51099;BME280;37146;48.210;16.234;2022-09-13T05:21:02;98642.22;;;8.96;100.00
51099;BME280;37146;48.210;16.234;2022-09-13T05:23:28;98640.03;;;9.05;100.00
51099;BME280;37146;48.210;16.234;2022-09-13T05:25:58;98641.28;;;9.15;100.00
51099;BME280;37146;48.210;16.234;2022-09-13T05:28:26;98647.06;;;9.23;100.00
51099;BME280;37146;48.210;16.234;2022-09-13T05:31:22;98655.78;;;9.27;100.00
51099;BME280;37146;48.210;16.234;2022-09-13T05:33:54;98650.91;;;9.35;100.00
51099;BME280;37146;48.210;16.234;2022-09-13T05:36:20;98651.38;;;9.43;100.00
51099;BME280;37146;48.210;16.234;2022-09-13T05:38:46;98655.44;;;9.51;100.00
51099;BME280;37146;48.210;16.234;2022-09-13T05:41:11;98651.25;;;9.63;100.00
51099;BME280;37146;48.210;16.234;2022-09-13T05:43:36;98654.47;;;9.69;100.00
51099;BME280;37146;48.210;16.234;2022-09-13T05:46:04;98664.16;;;9.70;100.00
51099;BME280;37146;48.210;16.234;2022-09-13T05:48:30;98662.91;;;9.78;100.00
51099;BME280;37146;48.210;16.234;2022-09-13T05:51:03;98654.41;;;9.87;100.00
51099;BME280;37146;48.210;16.234;2022-09-13T05:53:28;98645.28;;;9.91;100.00
51099;BME280;37146;48.210;16.234;2022-09-13T05:55:54;98641.16;;;10.01;100.00
51099;BME280;37146;48.210;16.234;2022-09-13T05:58:19;98655.63;;;10.13;100.00
51099;BME280;37146;48.210;16.234;2022-09-13T06:00:44;98651.31;;;10.27;100.00
51099;BME280;37146;48.210;16.234;2022-09-13T06:03:09;98657.75;;;10.40;100.00
51099;BME280;37146;48.210;16.234;2022-09-13T06:05:35;98654.44;;;10.51;100.00
51099;BME280;37146;48.210;16.234;2022-09-13T06:08:00;98648.50;;;10.62;100.00
51099;BME280;37146;48.210;16.234;2022-09-13T06:10:26;98644.22;;;10.74;100.00
51099;BME280;37146;48.210;16.234;2022-09-13T06:12:51;98645.41;;;10.84;100.00
51099;BME280;37146;48.210;16.234;2022-09-13T06:15:16;98637.63;;;10.95;100.00
51099;BME280;37146;48.210;16.234;2022-09-13T06:17:42;98633.97;;;10.96;100.00
51099;BME280;37146;48.210;16.234;2022-09-13T06:20:07;98634.03;;;11.11;100.00
51099;BME280;37146;48.210;16.234;2022-09-13T06:22:33;98630.41;;;11.26;100.00
51099;BME280;37146;48.210;16.234;2022-09-13T06:24:59;98631.41;;;11.40;100.00
51099;BME280;37146;48.210;16.234;2022-09-13T06:27:25;98631.41;;;11.54;100.00
51099;BME280;37146;48.210;16.234;2022-09-13T06:29:50;98627.38;;;11.62;100.00
51099;BME280;37146;48.210;16.234;2022-09-13T06:32:15;98624.59;;;11.78;100.00
51099;BME280;37146;48.210;16.234;2022-09-13T06:34:41;98621.25;;;11.88;100.00
51099;BME280;37146;48.210;16.234;2022-09-13T06:37:06;98629.09;;;12.06;100.00
51099;BME280;37146;48.210;16.234;2022-09-13T06:39:31;98631.47;;;12.25;100.00
51099;BME280;37146;48.210;16.234;2022-09-13T06:41:58;98636.50;;;12.44;100.00
51099;BME280;37146;48.210;16.234;2022-09-13T06:44:24;98627.53;;;12.58;100.00
51099;BME280;37146;48.210;16.234;2022-09-13T06:46:49;98626.31;;;12.77;100.00
51099;BME280;37146;48.210;16.234;2022-09-13T06:49:14;98621.72;;;12.92;100.00
51099;BME280;37146;48.210;16.234;2022-09-13T06:51:39;98634.13;;;13.07;100.00
51099;BME280;37146;48.210;16.234;2022-09-13T06:54:05;98629.31;;;13.25;100.00
51099;BME280;37146;48.210;16.234;2022-09-13T06:56:35;98624.72;;;13.40;100.00
51099;BME280;37146;48.210;16.234;2022-09-13T06:59:03;98631.81;;;13.54;100.00
51099;BME280;37146;48.210;16.234;2022-09-13T07:01:37;98628.69;;;13.73;100.00
51099;BME280;37146;48.210;16.234;2022-09-13T07:04:06;98616.00;;;13.88;100.00
51099;BME280;37146;48.210;16.234;2022-09-13T07:06:35;98620.22;;;14.17;100.00
51099;BME280;37146;48.210;16.234;2022-09-13T07:09:03;98615.44;;;14.33;100.00
51099;BME280;37146;48.210;16.234;2022-09-13T07:11:32;98605.03;;;14.53;100.00
51099;BME280;37146;48.210;16.234;2022-09-13T07:13:58;98607.56;;;14.67;100.00
51099;BME280;37146;48.210;16.234;2022-09-13T07:16:29;98609.38;;;14.91;100.00
51099;BME280;37146;48.210;16.234;2022-09-13T07:18:57;98607.81;;;15.00;97.98
51099;BME280;37146;48.210;16.234;2022-09-13T07:21:24;98614.63;;;15.17;99.03
51099;BME280;37146;48.210;16.234;2022-09-13T07:23:51;98611.22;;;15.38;98.34
51099;BME280;37146;48.210;16.234;2022-09-13T07:26:16;98618.84;;;15.55;95.38
51099;BME280;37146;48.210;16.234;2022-09-13T07:28:47;98619.81;;;15.77;94.98
51099;BME280;37146;48.210;16.234;2022-09-13T07:33:47;98627.91;;;15.77;91.66
51099;BME280;37146;48.210;16.234;2022-09-13T07:36:13;98621.34;;;15.92;90.62
51099;BME280;37146;48.210;16.234;2022-09-13T07:38:40;98620.34;;;16.05;89.70
51099;BME280;37146;48.210;16.234;2022-09-13T07:41:10;98627.31;;;16.30;90.84
51099;BME280;37146;48.210;16.234;2022-09-13T07:43:35;98624.38;;;16.33;88.10
51099;BME280;37146;48.210;16.234;2022-09-13T07:48:29;98621.16;;;16.83;83.75
51099;BME280;37146;48.210;16.234;2022-09-13T07:51:00;98620.63;;;16.90;83.55
51099;BME280;37146;48.210;16.234;2022-09-13T07:53:26;98617.81;;;16.91;81.86
51099;BME280;37146;48.210;16.234;2022-09-13T07:55:52;98612.09;;;17.06;80.72
51099;BME280;37146;48.210;16.234;2022-09-13T07:58:18;98613.03;;;17.16;79.91
51099;BME280;37146;48.210;16.234;2022-09-13T08:00:43;98614.38;;;17.43;82.15
51099;BME280;37146;48.210;16.234;2022-09-13T08:03:10;98613.69;;;17.51;76.58
51099;BME280;37146;48.210;16.234;2022-09-13T08:05:39;98611.81;;;17.72;76.21
51099;BME280;37146;48.210;16.234;2022-09-13T08:08:04;98617.69;;;18.08;75.87
51099;BME280;37146;48.210;16.234;2022-09-13T08:10:31;98614.59;;;18.13;73.20
51099;BME280;37146;48.210;16.234;2022-09-13T08:12:57;98616.34;;;18.34;72.93
51099;BME280;37146;48.210;16.234;2022-09-13T08:15:22;98621.22;;;18.60;71.66
51099;BME280;37146;48.210;16.234;2022-09-13T08:17:48;98623.56;;;19.13;70.94
51099;BME280;37146;48.210;16.234;2022-09-13T08:20:13;98630.00;;;19.12;68.63
51099;BME280;37146;48.210;16.234;2022-09-13T08:22:39;98634.41;;;19.23;65.60
51099;BME280;37146;48.210;16.234;2022-09-13T08:25:04;98624.69;;;19.30;66.30
51099;BME280;37146;48.210;16.234;2022-09-13T08:27:30;98632.81;;;19.40;64.37
51099;BME280;37146;48.210;16.234;2022-09-13T08:29:55;98619.44;;;20.42;64.12
51099;BME280;37146;48.210;16.234;2022-09-13T08:32:20;98625.44;;;21.10;61.41
51099;BME280;37146;48.210;16.234;2022-09-13T08:34:46;98625.75;;;21.51;56.70
51099;BME280;37146;48.210;16.234;2022-09-13T08:37:11;98621.72;;;22.51;56.12
51099;BME280;37146;48.210;16.234;2022-09-13T08:39:37;98623.03;;;21.69;55.08
51099;BME280;37146;48.210;16.234;2022-09-13T08:42:10;98624.72;;;22.39;53.70
51099;BME280;37146;48.210;16.234;2022-09-13T08:44:48;98618.09;;;23.01;52.29
51099;BME280;37146;48.210;16.234;2022-09-13T08:50:05;98614.72;;;25.08;46.41
51099;BME280;37146;48.210;16.234;2022-09-13T08:52:42;98610.09;;;25.32;45.10
51099;BME280;37146;48.210;16.234;2022-09-13T09:04:32;98612.50;;;26.70;41.62
51099;BME280;37146;48.210;16.234;2022-09-13T09:07:08;98612.75;;;26.90;43.31
51099;BME280;37146;48.210;16.234;2022-09-13T09:09:40;98594.63;;;27.17;42.06
51099;BME280;37146;48.210;16.234;2022-09-13T09:14:40;98613.44;;;28.28;40.98
51099;BME280;37146;48.210;16.234;2022-09-13T09:20:10;98603.41;;;27.78;39.27
51099;BME280;37146;48.210;16.234;2022-09-13T09:22:40;98605.34;;;27.56;39.28
51099;BME280;37146;48.210;16.234;2022-09-13T09:25:08;98599.03;;;27.55;40.04
51099;BME280;37146;48.210;16.234;2022-09-13T09:27:35;98604.63;;;29.08;38.22
51099;BME280;37146;48.210;16.234;2022-09-13T09:30:00;98600.66;;;29.37;38.03
51099;BME280;37146;48.210;16.234;2022-09-13T09:40:45;98588.38;;;30.39;35.84
51099;BME280;37146;48.210;16.234;2022-09-13T09:43:14;98576.59;;;28.70;38.36
51099;BME280;37146;48.210;16.234;2022-09-13T09:45:43;98566.72;;;29.50;38.26
51099;BME280;37146;48.210;16.234;2022-09-13T09:48:14;98559.50;;;29.15;38.80
51099;BME280;37146;48.210;16.234;2022-09-13T09:50:49;98559.63;;;28.67;38.29
51099;BME280;37146;48.210;16.234;2022-09-13T09:53:26;98553.56;;;28.92;37.35
51099;BME280;37146;48.210;16.234;2022-09-13T09:55:58;98559.69;;;28.18;38.53
51099;BME280;37146;48.210;16.234;2022-09-13T09:58:37;98559.06;;;26.66;41.83
51099;BME280;37146;48.210;16.234;2022-09-13T10:01:04;98549.31;;;27.50;40.33
51099;BME280;37146;48.210;16.234;2022-09-13T10:03:32;98548.38;;;28.00;39.94
51099;BME280;37146;48.210;16.234;2022-09-13T10:06:10;98543.00;;;28.27;39.36
51099;BME280;37146;48.210;16.234;2022-09-13T10:08:39;98538.25;;;27.72;39.87
51099;BME280;37146;48.210;16.234;2022-09-13T10:11:06;98532.03;;;27.91;40.56
51099;BME280;37146;48.210;16.234;2022-09-13T10:13:33;98539.03;;;27.59;39.76
51099;BME280;37146;48.210;16.234;2022-09-13T10:18:32;98528.06;;;28.49;40.46
51099;BME280;37146;48.210;16.234;2022-09-13T10:21:40;98530.22;;;28.67;38.39
51099;BME280;37146;48.210;16.234;2022-09-13T10:23:48;98522.88;;;29.49;38.77
51099;BME280;37146;48.210;16.234;2022-09-13T10:26:21;98533.91;;;29.15;37.58
51099;BME280;37146;48.210;16.234;2022-09-13T10:31:17;98530.09;;;30.22;35.64
51099;BME280;37146;48.210;16.234;2022-09-13T10:36:29;98539.63;;;30.72;35.53
51099;BME280;37146;48.210;16.234;2022-09-13T10:39:04;98529.56;;;31.16;34.95
51099;BME280;37146;48.210;16.234;2022-09-13T10:41:32;98533.81;;;29.96;35.35
51099;BME280;37146;48.210;16.234;2022-09-13T10:44:02;98530.59;;;29.92;36.23
51099;BME280;37146;48.210;16.234;2022-09-13T10:46:33;98524.28;;;29.85;37.00
51099;BME280;37146;48.210;16.234;2022-09-13T10:49:00;98523.50;;;29.51;38.44
51099;BME280;37146;48.210;16.234;2022-09-13T10:54:06;98513.50;;;29.76;36.94
51099;BME280;37146;48.210;16.234;2022-09-13T10:56:32;98520.06;;;29.75;36.93
51099;BME280;37146;48.210;16.234;2022-09-13T10:59:30;98508.91;;;30.16;36.95
51099;BME280;37146;48.210;16.234;2022-09-13T11:04:43;98511.94;;;30.53;36.75
51099;BME280;37146;48.210;16.234;2022-09-13T11:07:28;98504.34;;;29.96;37.68
51099;BME280;37146;48.210;16.234;2022-09-13T11:10:12;98509.59;;;30.04;35.40
51099;BME280;37146;48.210;16.234;2022-09-13T11:12:44;98505.28;;;30.22;36.99
51099;BME280;37146;48.210;16.234;2022-09-13T11:20:39;98491.22;;;30.76;33.90
51099;BME280;37146;48.210;16.234;2022-09-13T11:25:55;98483.84;;;28.58;38.83
51099;BME280;37146;48.210;16.234;2022-09-13T11:39:06;98488.41;;;31.08;33.80
51099;BME280;37146;48.210;16.234;2022-09-13T11:42:27;98465.81;;;30.60;34.92
51099;BME280;37146;48.210;16.234;2022-09-13T11:55:27;98464.34;;;27.77;37.18
51099;BME280;37146;48.210;16.234;2022-09-13T11:57:56;98478.75;;;27.92;35.75
51099;BME280;37146;48.210;16.234;2022-09-13T12:00:23;98470.03;;;27.82;35.60
51099;BME280;37146;48.210;16.234;2022-09-13T12:05:23;98474.94;;;27.87;37.44
51099;BME280;37146;48.210;16.234;2022-09-13T12:07:54;98468.53;;;27.73;35.92
51099;BME280;37146;48.210;16.234;2022-09-13T12:10:31;98464.88;;;27.59;33.71
51099;BME280;37146;48.210;16.234;2022-09-13T12:13:01;98455.41;;;27.05;34.14
51099;BME280;37146;48.210;16.234;2022-09-13T12:15:40;98455.44;;;26.61;35.60
51099;BME280;37146;48.210;16.234;2022-09-13T12:21:08;98436.53;;;26.23;37.60
51099;BME280;37146;48.210;16.234;2022-09-13T12:23:41;98435.22;;;26.19;36.10
51099;BME280;37146;48.210;16.234;2022-09-13T12:26:23;98433.53;;;25.66;39.28
51099;BME280;37146;48.210;16.234;2022-09-13T12:28:54;98418.00;;;25.73;37.73
51099;BME280;37146;48.210;16.234;2022-09-13T12:31:23;98417.66;;;25.98;37.44
51099;BME280;37146;48.210;16.234;2022-09-13T12:33:49;98417.19;;;26.10;37.25
51099;BME280;37146;48.210;16.234;2022-09-13T12:36:44;98414.84;;;25.91;38.31
51099;BME280;37146;48.210;16.234;2022-09-13T13:00:21;98394.13;;;24.77;41.63
51099;BME280;37146;48.210;16.234;2022-09-13T13:02:58;98391.59;;;24.91;42.23
51099;BME280;37146;48.210;16.234;2022-09-13T13:05:31;98391.69;;;24.97;41.92
51099;BME280;37146;48.210;16.234;2022-09-13T13:08:00;98382.53;;;25.05;41.71
51099;BME280;37146;48.210;16.234;2022-09-13T13:10:32;98392.06;;;24.79;42.49
51099;BME280;37146;48.210;16.234;2022-09-13T13:13:13;98386.19;;;24.82;39.83
51099;BME280;37146;48.210;16.234;2022-09-13T13:18:21;98394.13;;;24.77;40.17
51099;BME280;37146;48.210;16.234;2022-09-13T13:36:42;98363.38;;;24.14;40.57
51099;BME280;37146;48.210;16.234;2022-09-13T13:41:57;98356.34;;;24.19;41.78
51099;BME280;37146;48.210;16.234;2022-09-13T13:46:53;98359.72;;;23.98;41.09
51099;BME280;37146;48.210;16.234;2022-09-13T13:57:32;98352.66;;;24.12;41.78
51099;BME280;37146;48.210;16.234;2022-09-13T14:00:14;98346.44;;;24.18;41.48
51099;BME280;37146;48.210;16.234;2022-09-13T14:14:27;98340.16;;;24.71;40.81
51099;BME280;37146;48.210;16.234;2022-09-13T14:20:27;98333.03;;;25.00;40.58
51099;BME280;37146;48.210;16.234;2022-09-13T14:22:26;98332.81;;;25.16;42.88
51099;BME280;37146;48.210;16.234;2022-09-13T14:25:11;98325.25;;;25.19;40.06
51099;BME280;37146;48.210;16.234;2022-09-13T14:27:39;98311.09;;;25.30;41.27
51099;BME280;37146;48.210;16.234;2022-09-13T14:32:45;98316.59;;;24.70;39.69
51099;BME280;37146;48.210;16.234;2022-09-13T14:35:31;98317.41;;;24.55;39.62
51099;BME280;37146;48.210;16.234;2022-09-13T14:38:10;98315.50;;;24.41;39.23
51099;BME280;37146;48.210;16.234;2022-09-13T14:40:36;98312.03;;;24.47;40.34
51099;BME280;37146;48.210;16.234;2022-09-13T14:43:14;98311.53;;;24.44;39.50
51099;BME280;37146;48.210;16.234;2022-09-13T14:45:41;98314.56;;;24.34;39.38
51099;BME280;37146;48.210;16.234;2022-09-13T14:50:39;98306.75;;;24.07;40.15
51099;BME280;37146;48.210;16.234;2022-09-13T14:53:11;98305.63;;;23.93;40.50
51099;BME280;37146;48.210;16.234;2022-09-13T14:55:42;98307.53;;;23.70;41.19
51099;BME280;37146;48.210;16.234;2022-09-13T14:58:14;98308.22;;;23.63;40.76
51099;BME280;37146;48.210;16.234;2022-09-13T15:00:50;98293.78;;;23.55;41.51
51099;BME280;37146;48.210;16.234;2022-09-13T15:03:18;98291.78;;;23.49;42.02
51099;BME280;37146;48.210;16.234;2022-09-13T15:05:53;98286.19;;;23.42;42.49
51099;BME280;37146;48.210;16.234;2022-09-13T15:08:26;98286.59;;;23.30;41.88
51099;BME280;37146;48.210;16.234;2022-09-13T15:10:51;98284.84;;;23.06;42.77
51099;BME280;37146;48.210;16.234;2022-09-13T15:13:17;98286.34;;;23.09;43.23
51099;BME280;37146;48.210;16.234;2022-09-13T15:15:43;98301.34;;;23.05;44.47
51099;BME280;37146;48.210;16.234;2022-09-13T15:20:52;98300.41;;;22.89;45.11
51099;BME280;37146;48.210;16.234;2022-09-13T15:23:37;98295.00;;;22.81;46.82
51099;BME280;37146;48.210;16.234;2022-09-13T15:26:07;98293.31;;;22.63;49.45
51099;BME280;37146;48.210;16.234;2022-09-13T15:28:54;98293.16;;;22.65;50.23
51099;BME280;37146;48.210;16.234;2022-09-13T15:31:22;98288.59;;;22.57;51.20
51099;BME280;37146;48.210;16.234;2022-09-13T15:33:48;98295.09;;;22.48;51.19
51099;BME280;37146;48.210;16.234;2022-09-13T15:41:31;98282.81;;;22.27;52.68
51099;BME280;37146;48.210;16.234;2022-09-13T15:43:58;98285.53;;;22.19;53.67
51099;BME280;37146;48.210;16.234;2022-09-13T15:46:23;98292.38;;;22.15;54.72
51099;BME280;37146;48.210;16.234;2022-09-13T15:48:52;98286.75;;;22.08;54.22
51099;BME280;37146;48.210;16.234;2022-09-13T15:51:18;98287.94;;;22.14;54.01
51099;BME280;37146;48.210;16.234;2022-09-13T15:53:45;98297.47;;;22.09;54.73
51099;BME280;37146;48.210;16.234;2022-09-13T15:56:19;98292.34;;;22.06;54.31
51099;BME280;37146;48.210;16.234;2022-09-13T15:58:45;98292.03;;;22.01;55.15
51099;BME280;37146;48.210;16.234;2022-09-13T16:01:12;98284.38;;;21.97;55.76
51099;BME280;37146;48.210;16.234;2022-09-13T16:03:37;98286.59;;;21.93;57.10
51099;BME280;37146;48.210;16.234;2022-09-13T16:06:04;98281.81;;;21.87;55.23
51099;BME280;37146;48.210;16.234;2022-09-13T16:08:31;98285.41;;;21.87;55.37
51099;BME280;37146;48.210;16.234;2022-09-13T16:10:56;98277.56;;;21.84;56.46
51099;BME280;37146;48.210;16.234;2022-09-13T16:13:22;98284.53;;;21.70;56.39
51099;BME280;37146;48.210;16.234;2022-09-13T16:15:47;98276.72;;;21.67;56.20
51099;BME280;37146;48.210;16.234;2022-09-13T16:18:14;98269.22;;;21.69;56.47
51099;BME280;37146;48.210;16.234;2022-09-13T16:20:41;98266.50;;;21.77;55.97